createdAt,value
2022-08-10T00:00:30.943Z,2.60
2022-08-10T00:03:20.334Z,2.50
2022-08-10T00:06:07.445Z,2.60
2022-08-10T00:08:54.518Z,2.63
2022-08-10T00:11:41.543Z,2.47
2022-08-10T00:14:28.557Z,2.80
2022-08-10T00:17:15.615Z,2.47
2022-08-10T00:20:08.554Z,2.50
2022-08-10T00:22:57.697Z,2.73
2022-08-10T00:25:45.102Z,2.60
2022-08-10T00:28:32.286Z,3.00
2022-08-10T00:31:19.646Z,2.50
2022-08-10T00:34:06.658Z,3.07
2022-08-10T00:36:53.745Z,2.73
2022-08-10T00:39:41.372Z,2.60
2022-08-10T00:42:28.555Z,2.63
2022-08-10T00:45:15.574Z,2.50
2022-08-10T00:48:03.031Z,2.57
2022-08-10T00:50:50.378Z,2.67
2022-08-10T00:53:37.464Z,2.60
2022-08-10T00:57:12.691Z,2.70
2022-08-10T00:59:33.009Z,2.80
2022-08-10T01:02:20.062Z,3.07
2022-08-10T01:05:12.401Z,3.07
2022-08-10T01:08:02.251Z,2.67
2022-08-10T01:12:34.203Z,3.00
2022-08-10T01:14:45.187Z,2.30
2022-08-10T01:17:50.665Z,3.00
2022-08-10T01:20:41.691Z,2.60
2022-08-10T01:24:13.472Z,2.80
2022-08-10T01:27:27.418Z,2.60
2022-08-10T01:30:15.402Z,2.50
2022-08-10T01:33:19.196Z,2.87
2022-08-10T01:36:32.037Z,2.90
2022-08-10T01:39:25.268Z,2.63
2022-08-10T01:42:16.909Z,2.90
2022-08-10T01:45:07.263Z,3.17
2022-08-10T01:48:16.989Z,2.90
2022-08-10T01:51:25.273Z,3.17
2022-08-10T01:54:16.071Z,3.07
2022-08-10T01:57:04.516Z,3.23
2022-08-10T01:59:58.788Z,3.47
2022-08-10T02:02:52.769Z,3.40
2022-08-10T02:05:43.531Z,3.47
2022-08-10T02:08:31.983Z,3.50
2022-08-10T02:11:21.185Z,4.33
2022-08-10T02:14:10.042Z,3.90
2022-08-10T02:16:58.095Z,3.97
2022-08-10T02:19:47.190Z,3.80
2022-08-10T02:22:38.844Z,4.10
2022-08-10T02:25:41.738Z,4.17
2022-08-10T02:28:33.746Z,3.73
2022-08-10T02:31:23.454Z,3.70
2022-08-10T02:34:12.773Z,4.03
2022-08-10T02:37:03.948Z,3.83
2022-08-10T02:39:58.231Z,3.77
2022-08-10T02:45:23.959Z,3.97
2022-08-10T02:46:12.138Z,3.17
2022-08-10T02:49:05.089Z,3.57
2022-08-10T02:52:07.570Z,3.53
2022-08-10T02:55:06.119Z,3.60
2022-08-10T02:58:17.627Z,3.83
2022-08-10T03:01:10.722Z,3.67
2022-08-10T03:04:02.011Z,3.80
2022-08-10T03:06:56.392Z,3.70
2022-08-10T03:09:45.287Z,3.70
2022-08-10T03:12:38.661Z,3.60
2022-08-10T03:15:28.659Z,4.03
2022-08-10T03:18:16.887Z,4.33
2022-08-10T03:21:10.018Z,3.40
2022-08-10T03:24:02.610Z,3.67
2022-08-10T03:27:10.710Z,3.90
2022-08-10T03:30:28.563Z,3.57
2022-08-10T03:33:07.873Z,3.70
2022-08-10T03:36:40.463Z,3.90
2022-08-10T03:39:02.357Z,4.60
2022-08-10T03:41:55.946Z,4.33
2022-08-10T03:44:48.582Z,4.07
2022-08-10T03:47:42.061Z,4.13
2022-08-10T03:50:51.502Z,5.10
2022-08-10T03:54:05.524Z,4.33
2022-08-10T03:56:46.205Z,4.30
2022-08-10T03:59:33.861Z,5.00
2022-08-10T04:02:52.721Z,4.47
2022-08-10T04:05:38.255Z,4.27
2022-08-10T04:08:26.312Z,3.87
2022-08-10T04:11:13.590Z,4.30
2022-08-10T04:14:00.628Z,3.87
2022-08-10T04:16:47.628Z,4.40
2022-08-10T04:19:43.208Z,4.70
2022-08-10T04:22:30.668Z,4.53
2022-08-10T04:25:18.454Z,4.27
2022-08-10T04:28:09.597Z,4.20
2022-08-10T04:30:57.820Z,4.67
2022-08-10T04:33:49.011Z,4.53
2022-08-10T04:36:37.240Z,4.60
2022-08-10T04:39:24.390Z,4.90
2022-08-10T04:42:11.754Z,4.80
2022-08-10T04:44:59.549Z,4.87
2022-08-10T04:48:00.354Z,4.90
2022-08-10T04:50:50.845Z,4.80
2022-08-10T04:54:03.155Z,4.63
2022-08-10T04:56:46.025Z,4.73
2022-08-10T04:59:33.086Z,4.53
2022-08-10T05:02:30.531Z,4.93
2022-08-10T05:05:19.217Z,4.70
2022-08-10T05:08:06.322Z,5.30
2022-08-10T05:10:53.576Z,4.70
2022-08-10T05:13:40.571Z,5.03
2022-08-10T05:16:32.272Z,5.00
2022-08-10T05:20:02.358Z,4.93
2022-08-10T05:22:26.694Z,5.60
2022-08-10T05:25:16.348Z,5.13
2022-08-10T05:28:06.453Z,5.07
2022-08-10T05:30:53.948Z,4.87
2022-08-10T05:33:40.961Z,4.80
2022-08-10T05:36:28.496Z,4.80
2022-08-10T05:39:16.938Z,5.10
2022-08-10T05:42:04.313Z,5.37
2022-08-10T05:44:51.986Z,6.43
2022-08-10T05:48:41.560Z,5.50
2022-08-10T05:50:46.459Z,5.50
2022-08-10T05:54:03.064Z,5.37
2022-08-10T05:56:56.939Z,5.60
2022-08-10T06:00:33.148Z,4.70
2022-08-10T06:03:03.927Z,4.10
2022-08-10T06:05:54.124Z,5.17
2022-08-10T06:08:43.619Z,4.47
2022-08-10T06:12:27.982Z,4.67
2022-08-10T06:15:00.306Z,4.67
2022-08-10T06:17:59.030Z,4.90
2022-08-10T06:20:50.304Z,4.47
2022-08-10T06:23:38.417Z,4.90
2022-08-10T06:26:25.386Z,5.00
2022-08-10T06:29:17.194Z,5.53
2022-08-10T06:32:06.281Z,4.50
2022-08-10T06:34:55.952Z,4.70
2022-08-10T06:37:51.727Z,4.67
2022-08-10T06:40:43.415Z,4.27
2022-08-10T06:43:32.466Z,4.20
2022-08-10T06:46:22.204Z,4.10
2022-08-10T06:49:11.178Z,3.60
2022-08-10T06:52:01.924Z,3.80
2022-08-10T06:54:54.522Z,4.23
2022-08-10T06:57:44.066Z,4.43
2022-08-10T07:00:34.615Z,4.90
2022-08-10T07:03:26.429Z,4.07
2022-08-10T07:06:16.107Z,4.10
2022-08-10T07:09:04.739Z,3.37
2022-08-10T07:11:54.441Z,4.70
2022-08-10T07:14:48.981Z,4.70
2022-08-10T07:17:40.022Z,4.13
2022-08-10T07:20:30.964Z,4.23
2022-08-10T07:23:58.222Z,3.20
2022-08-10T07:26:31.122Z,3.67
2022-08-10T07:29:26.590Z,3.80
2022-08-10T07:32:33.077Z,3.20
2022-08-10T07:35:26.384Z,3.97
2022-08-10T07:38:23.852Z,3.60
2022-08-10T07:41:13.331Z,3.87
2022-08-10T07:44:07.878Z,3.37
2022-08-10T07:46:58.827Z,3.30
2022-08-10T07:49:48.142Z,2.90
2022-08-10T07:52:38.222Z,3.10
2022-08-10T07:56:08.253Z,2.60
2022-08-10T07:58:38.589Z,2.60
2022-08-10T08:01:31.911Z,3.10
2022-08-10T08:04:22.011Z,2.43
2022-08-10T08:07:09.003Z,2.90
2022-08-10T08:10:01.051Z,3.03
2022-08-10T08:12:48.817Z,3.07
2022-08-10T08:16:20.047Z,3.00
2022-08-10T08:18:54.134Z,2.57
2022-08-10T08:24:07.658Z,2.53
2022-08-10T08:25:00.412Z,2.73
2022-08-10T08:27:52.896Z,3.00
2022-08-10T08:30:43.526Z,2.70
2022-08-10T08:33:42.009Z,2.78
2022-08-10T08:36:30.851Z,2.65
2022-08-10T08:39:17.974Z,2.53
2022-08-10T08:42:42.717Z,2.70
2022-08-10T08:46:00.456Z,2.70
2022-08-10T08:48:51.746Z,2.50
2022-08-10T08:52:20.197Z,2.80
2022-08-10T08:56:03.116Z,2.50
2022-08-10T08:59:05.673Z,2.63
2022-08-10T09:02:10.123Z,2.60
2022-08-10T09:05:22.282Z,2.28
2022-08-10T09:08:37.310Z,2.45
2022-08-10T09:11:27.252Z,2.45
2022-08-10T09:14:30.962Z,2.38
2022-08-10T09:17:42.342Z,2.30
2022-08-10T09:21:09.939Z,2.45
2022-08-10T09:24:11.436Z,2.47
2022-08-10T09:27:04.189Z,2.53
2022-08-10T09:30:00.416Z,2.58
2022-08-10T09:36:16.062Z,2.30
2022-08-10T09:36:31.955Z,2.50
2022-08-10T09:40:56.325Z,2.30
2022-08-10T09:43:26.056Z,1.90
2022-08-10T09:46:42.586Z,2.05
2022-08-10T09:49:54.756Z,2.30
2022-08-10T09:53:04.304Z,1.98
2022-08-10T09:56:17.382Z,1.90
2022-08-10T09:59:29.179Z,2.20
2022-08-10T10:02:52.563Z,1.92
2022-08-10T10:06:02.251Z,1.95
2022-08-10T10:09:10.629Z,2.00
2022-08-10T10:12:05.133Z,2.08
2022-08-10T10:15:23.986Z,1.90
2022-08-10T10:18:22.491Z,1.85
2022-08-10T10:21:52.320Z,2.13
2022-08-10T10:24:43.188Z,2.13
2022-08-10T10:27:33.510Z,2.08
2022-08-10T10:30:23.411Z,2.00
2022-08-10T10:33:15.333Z,2.00
2022-08-10T10:36:05.718Z,2.30
2022-08-10T10:38:56.287Z,2.10
2022-08-10T10:42:04.879Z,2.10
2022-08-10T10:45:15.090Z,2.00
2022-08-10T10:48:32.381Z,2.30
2022-08-10T10:51:55.501Z,1.75
2022-08-10T10:55:09.678Z,1.85
2022-08-10T10:58:05.530Z,2.15
2022-08-10T11:01:11.037Z,2.42
2022-08-10T11:04:18.557Z,1.95
2022-08-10T11:07:37.205Z,2.00
2022-08-10T11:10:54.139Z,2.03
2022-08-10T11:14:24.407Z,1.90
2022-08-10T11:17:16.424Z,1.98
2022-08-10T11:20:18.109Z,1.77
2022-08-10T11:23:22.749Z,1.80
2022-08-10T11:26:22.902Z,2.15
2022-08-10T11:29:26.011Z,1.98
2022-08-10T11:32:35.203Z,2.10
2022-08-10T11:35:34.731Z,2.22
2022-08-10T11:38:36.870Z,2.30
2022-08-10T11:42:11.987Z,2.10
2022-08-10T11:44:53.682Z,2.00
2022-08-10T11:47:43.673Z,1.80
2022-08-10T11:50:43.702Z,2.08
2022-08-10T11:53:39.298Z,2.00
2022-08-10T11:56:33.727Z,2.03
2022-08-10T11:59:43.138Z,2.05
2022-08-10T12:02:36.009Z,1.98
2022-08-10T12:05:52.150Z,2.20
2022-08-10T12:10:03.765Z,2.15
2022-08-10T12:11:48.581Z,2.33
2022-08-10T12:14:43.495Z,1.90
2022-08-10T12:17:56.127Z,2.13
2022-08-10T12:20:48.666Z,2.20
2022-08-10T12:23:42.745Z,2.05
2022-08-10T12:26:48.046Z,1.90
2022-08-10T12:30:04.801Z,1.90
2022-08-10T12:33:02.257Z,1.80
2022-08-10T12:36:19.076Z,2.45
2022-08-10T12:39:29.995Z,2.00
2022-08-10T12:42:38.934Z,1.80
2022-08-10T12:45:54.222Z,2.00
2022-08-10T12:48:54.639Z,1.85
2022-08-10T12:51:49.846Z,1.80
2022-08-10T12:54:38.380Z,2.17
2022-08-10T12:57:26.570Z,2.08
2022-08-10T13:00:17.303Z,1.80
2022-08-10T13:03:07.931Z,1.90
2022-08-10T13:06:02.374Z,2.30
2022-08-10T13:09:10.674Z,1.80
2022-08-10T13:12:36.296Z,2.17
2022-08-10T13:15:48.150Z,1.63
2022-08-10T13:18:41.491Z,2.00
2022-08-10T13:21:35.912Z,2.10
2022-08-10T13:24:31.967Z,1.98
2022-08-10T13:28:00.547Z,1.75
2022-08-10T13:30:37.451Z,1.90
2022-08-10T13:34:41.472Z,1.88
2022-08-10T13:36:41.638Z,1.80
2022-08-10T13:39:58.480Z,2.10
2022-08-10T13:42:50.002Z,1.95
2022-08-10T13:45:47.724Z,2.17
2022-08-10T13:48:40.246Z,1.88
2022-08-10T13:51:54.400Z,1.95
2022-08-10T13:54:41.746Z,2.10
2022-08-10T13:57:32.628Z,2.17
2022-08-10T14:00:35.238Z,2.15
2022-08-10T14:03:27.286Z,1.80
2022-08-10T14:06:16.338Z,2.00
2022-08-10T14:09:08.973Z,2.03
2022-08-10T14:11:58.142Z,2.17
2022-08-10T14:14:52.848Z,1.92
2022-08-10T14:17:44.879Z,2.08
2022-08-10T14:20:34.723Z,2.30
2022-08-10T14:23:21.967Z,1.80
2022-08-10T14:26:11.614Z,1.88
2022-08-10T14:29:08.582Z,2.10
2022-08-10T14:32:00.611Z,1.95
2022-08-10T14:36:16.822Z,2.10
2022-08-10T14:38:05.975Z,1.88
2022-08-10T14:40:56.983Z,2.05
2022-08-10T14:43:51.238Z,1.90
2022-08-10T14:46:44.609Z,1.60
2022-08-10T14:49:57.370Z,1.73
2022-08-10T14:52:45.294Z,1.92
2022-08-10T14:55:32.873Z,2.05
2022-08-10T14:59:06.134Z,1.70
2022-08-10T15:02:38.257Z,1.90
2022-08-10T15:05:09.391Z,2.00
2022-08-10T15:07:59.120Z,2.20
2022-08-10T15:10:50.826Z,1.77
2022-08-10T15:13:44.005Z,1.63
2022-08-10T15:16:56.149Z,2.05
2022-08-10T15:20:04.682Z,1.90
2022-08-10T15:23:04.276Z,2.08
2022-08-10T15:25:57.778Z,2.00
2022-08-10T15:29:23.693Z,2.05
2022-08-10T15:32:16.988Z,1.65
2022-08-10T15:35:27.085Z,1.92
2022-08-10T15:38:21.764Z,1.75
2022-08-10T15:41:12.984Z,1.80
2022-08-10T15:44:03.858Z,1.80
2022-08-10T15:46:57.742Z,1.88
2022-08-10T15:49:58.090Z,1.73
2022-08-10T15:53:00.999Z,1.70
2022-08-10T15:55:53.061Z,1.85
2022-08-10T15:58:52.992Z,1.70
2022-08-10T16:02:13.065Z,1.83
2022-08-10T16:05:08.379Z,1.58
2022-08-10T16:08:09.872Z,1.50
2022-08-10T16:11:05.539Z,1.90
2022-08-10T16:14:00.660Z,1.85
2022-08-10T16:16:54.267Z,1.63
2022-08-10T16:19:53.446Z,1.80
2022-08-10T16:22:41.016Z,1.67
2022-08-10T16:25:48.124Z,1.80
2022-08-10T16:28:43.699Z,1.50
2022-08-10T16:31:33.054Z,1.75
2022-08-10T16:34:21.938Z,1.65
2022-08-10T16:37:15.769Z,1.80
2022-08-10T16:40:06.375Z,1.75
2022-08-10T16:42:54.107Z,1.80
2022-08-10T16:45:45.966Z,1.80
2022-08-10T16:48:49.780Z,1.77
2022-08-10T16:51:39.865Z,1.80
2022-08-10T16:54:28.423Z,1.70
2022-08-10T16:57:16.347Z,1.80
2022-08-10T17:00:05.904Z,1.50
2022-08-10T17:02:58.176Z,1.70
2022-08-10T17:06:10.296Z,1.40
2022-08-10T17:08:56.792Z,1.60
2022-08-10T17:11:50.054Z,1.80
2022-08-10T17:14:40.249Z,1.83
2022-08-10T17:17:31.053Z,1.58
2022-08-10T17:20:31.943Z,1.50
2022-08-10T17:23:20.906Z,1.80
2022-08-10T17:26:14.966Z,1.52
2022-08-10T17:29:57.817Z,1.83
2022-08-10T17:32:32.082Z,1.65
2022-08-10T17:35:23.792Z,1.92
2022-08-10T17:38:30.802Z,1.90
2022-08-10T17:41:23.849Z,1.55
2022-08-10T17:44:12.296Z,1.70
2022-08-10T17:47:00.916Z,1.80
2022-08-10T17:50:00.002Z,1.77
2022-08-10T17:52:48.073Z,1.92
2022-08-10T17:55:38.610Z,1.80
2022-08-10T17:58:27.236Z,2.10
2022-08-10T18:01:41.569Z,1.67
2022-08-10T18:04:30.330Z,1.83
2022-08-10T18:07:23.063Z,1.80
2022-08-10T18:10:15.141Z,1.90
2022-08-10T18:13:04.549Z,2.08
2022-08-10T18:15:52.138Z,1.67
2022-08-10T18:18:40.784Z,1.67
2022-08-10T18:21:30.934Z,1.85
2022-08-10T18:24:21.197Z,1.80
2022-08-10T18:27:09.029Z,1.85
2022-08-10T18:29:59.999Z,1.73
2022-08-10T18:32:54.094Z,1.60
2022-08-10T18:35:43.907Z,1.63
2022-08-10T18:38:34.329Z,1.50
2022-08-10T18:41:36.728Z,1.98
2022-08-10T18:44:28.810Z,1.70
2022-08-10T18:47:20.189Z,1.88
2022-08-10T18:50:14.254Z,1.70
2022-08-10T18:53:12.086Z,1.98
2022-08-10T18:56:10.602Z,1.88
2022-08-10T18:59:22.914Z,2.03
2022-08-10T19:02:42.402Z,1.70
2022-08-10T19:05:35.839Z,1.90
2022-08-10T19:09:02.043Z,2.22
2022-08-10T19:12:31.215Z,1.90
2022-08-10T19:15:59.320Z,2.05
2022-08-10T19:19:24.078Z,1.90
2022-08-10T19:22:21.467Z,1.80
2022-08-10T19:26:43.192Z,1.92
2022-08-10T19:28:58.884Z,2.30
2022-08-10T19:31:56.596Z,2.13
2022-08-10T19:35:03.173Z,1.80
2022-08-10T19:38:16.744Z,1.93
2022-08-10T19:41:25.391Z,2.10
2022-08-10T19:44:35.606Z,2.10
2022-08-10T19:47:36.344Z,2.00
2022-08-10T19:50:33.039Z,2.07
2022-08-10T19:53:26.860Z,2.23
2022-08-10T19:56:34.790Z,2.37
2022-08-10T20:00:17.518Z,2.47
2022-08-10T20:03:01.302Z,2.33
2022-08-10T20:06:19.116Z,2.40
2022-08-10T20:09:27.328Z,1.97
2022-08-10T20:12:27.100Z,2.10
2022-08-10T20:15:41.965Z,2.20
2022-08-10T20:18:37.619Z,1.80
2022-08-10T20:21:31.193Z,2.00
2022-08-10T20:24:29.000Z,2.40
2022-08-10T20:27:59.656Z,2.10
2022-08-10T20:30:47.097Z,2.47
2022-08-10T20:34:01.688Z,2.20
2022-08-10T20:37:05.017Z,2.00
2022-08-10T20:40:20.354Z,2.30
2022-08-10T20:43:20.716Z,2.30
2022-08-10T20:46:28.006Z,2.47
2022-08-10T20:49:27.147Z,2.10
2022-08-10T20:52:15.420Z,2.20
2022-08-10T20:55:08.902Z,2.03
2022-08-10T20:58:27.918Z,2.20
2022-08-10T21:01:18.120Z,2.07
2022-08-10T21:04:13.296Z,2.03
2022-08-10T21:07:58.203Z,2.30
2022-08-10T21:10:58.560Z,2.60
2022-08-10T21:14:12.189Z,2.40
2022-08-10T21:17:16.930Z,2.43
2022-08-10T21:20:28.800Z,2.40
2022-08-10T21:23:19.870Z,2.27
2022-08-10T21:26:29.640Z,2.30
2022-08-10T21:29:42.045Z,2.40
2022-08-10T21:33:02.057Z,2.70
2022-08-10T21:35:56.421Z,3.10
2022-08-10T21:38:46.145Z,2.70
2022-08-10T21:42:36.903Z,2.30
2022-08-10T21:46:01.573Z,3.33
2022-08-10T21:49:15.199Z,3.07
2022-08-10T21:52:41.413Z,2.90
2022-08-10T21:56:14.450Z,2.80
2022-08-10T21:59:29.369Z,3.10
2022-08-10T22:02:50.456Z,2.90
2022-08-10T22:05:58.580Z,3.10
2022-08-10T22:09:10.671Z,2.97
2022-08-10T22:12:31.326Z,2.83
2022-08-10T22:16:03.214Z,3.13
2022-08-10T22:19:14.847Z,2.97
2022-08-10T22:22:31.417Z,2.70
2022-08-10T22:25:56.243Z,2.73
2022-08-10T22:29:10.870Z,2.70
2022-08-10T22:32:35.413Z,3.33
2022-08-10T22:35:56.327Z,3.30
2022-08-10T22:40:12.543Z,3.20
2022-08-10T22:42:59.108Z,3.53
2022-08-10T22:46:18.928Z,3.20
2022-08-10T22:49:06.108Z,3.57
2022-08-10T22:52:16.815Z,3.20
2022-08-10T22:55:32.233Z,3.40
2022-08-10T22:58:28.826Z,3.00
2022-08-10T23:02:08.552Z,2.73
2022-08-10T23:04:57.754Z,2.73
2022-08-10T23:07:51.517Z,2.83
2022-08-10T23:10:45.552Z,3.23
2022-08-10T23:13:37.869Z,3.13
2022-08-10T23:16:46.807Z,3.20
2022-08-10T23:20:02.638Z,3.30
2022-08-10T23:22:56.640Z,2.90
2022-08-10T23:25:56.358Z,3.10
2022-08-10T23:29:05.201Z,3.17
2022-08-10T23:32:06.968Z,3.70
2022-08-10T23:36:30.664Z,3.83
2022-08-10T23:38:04.880Z,3.87
2022-08-10T23:40:56.609Z,3.43
2022-08-10T23:44:03.230Z,4.03
2022-08-10T23:46:52.198Z,3.43
2022-08-10T23:49:40.576Z,3.80
2022-08-10T23:52:34.130Z,3.00
2022-08-10T23:55:24.568Z,3.30
2022-08-10T23:58:31.919Z,3.53
